createdAt,value
2022-07-30T00:02:05.121Z,15.00
2022-07-30T00:04:32.915Z,15.10
2022-07-30T00:07:01.548Z,15.10
2022-07-30T00:09:29.441Z,15.10
2022-07-30T00:12:02.126Z,15.00
2022-07-30T00:14:30.757Z,14.90
2022-07-30T00:16:58.690Z,14.80
2022-07-30T00:19:26.555Z,14.80
2022-07-30T00:21:57.642Z,14.80
2022-07-30T00:24:28.265Z,14.80
2022-07-30T00:26:55.984Z,14.70
2022-07-30T00:29:23.659Z,14.50
2022-07-30T00:31:51.663Z,14.50
2022-07-30T00:34:19.357Z,14.60
2022-07-30T00:36:47.042Z,14.70
2022-07-30T00:39:14.598Z,14.80
2022-07-30T00:42:03.373Z,14.80
2022-07-30T00:44:31.379Z,14.90
2022-07-30T00:47:00.322Z,14.90
2022-07-30T00:49:28.317Z,14.80
2022-07-30T00:51:56.195Z,14.90
2022-07-30T00:54:23.872Z,14.80
2022-07-30T00:56:51.779Z,14.80
2022-07-30T00:59:19.410Z,14.80
2022-07-30T01:01:47.150Z,14.70
2022-07-30T01:04:14.813Z,14.60
2022-07-30T01:06:42.449Z,14.60
2022-07-30T01:09:10.058Z,14.60
2022-07-30T01:11:40.451Z,14.60
2022-07-30T01:14:09.924Z,14.60
2022-07-30T01:16:41.718Z,14.70
2022-07-30T01:19:52.368Z,14.80
2022-07-30T01:22:30.909Z,14.80
2022-07-30T01:25:26.232Z,14.80
2022-07-30T01:28:07.930Z,14.80
2022-07-30T01:30:42.181Z,14.80
2022-07-30T01:33:15.009Z,14.90
2022-07-30T01:35:45.391Z,14.90
2022-07-30T01:38:16.577Z,14.90
2022-07-30T01:40:48.131Z,14.90
2022-07-30T01:43:18.179Z,14.80
2022-07-30T01:45:48.754Z,14.80
2022-07-30T01:48:21.474Z,14.60
2022-07-30T01:50:52.888Z,14.50
2022-07-30T01:53:29.999Z,14.50
2022-07-30T01:56:00.488Z,14.60
2022-07-30T01:58:33.106Z,14.50
2022-07-30T02:01:10.133Z,14.50
2022-07-30T02:03:38.119Z,14.40
2022-07-30T02:06:14.277Z,14.40
2022-07-30T02:08:59.874Z,14.30
2022-07-30T02:11:49.536Z,14.30
2022-07-30T02:14:31.072Z,14.40
2022-07-30T02:17:02.300Z,14.30
2022-07-30T02:19:41.719Z,14.40
2022-07-30T02:22:15.353Z,14.30
2022-07-30T02:24:44.370Z,14.30
2022-07-30T02:27:33.944Z,14.30
2022-07-30T02:30:03.932Z,14.40
2022-07-30T02:32:38.337Z,14.50
2022-07-30T02:35:18.568Z,14.50
2022-07-30T02:37:50.862Z,14.50
2022-07-30T02:40:21.234Z,14.50
2022-07-30T02:42:51.830Z,14.50
2022-07-30T02:45:25.044Z,14.50
2022-07-30T02:48:01.439Z,14.50
2022-07-30T02:50:31.035Z,14.30
2022-07-30T02:53:01.352Z,14.30
2022-07-30T02:55:32.967Z,14.20
2022-07-30T02:58:03.151Z,14.10
2022-07-30T03:00:33.004Z,14.10
2022-07-30T03:03:01.961Z,14.10
2022-07-30T03:05:30.248Z,14.10
2022-07-30T03:08:00.159Z,14.00
2022-07-30T03:10:28.743Z,14.00
2022-07-30T03:12:59.833Z,14.00
2022-07-30T03:15:29.931Z,14.00
2022-07-30T03:17:59.561Z,14.10
2022-07-30T03:20:31.250Z,14.10
2022-07-30T03:23:01.733Z,14.20
2022-07-30T03:25:32.112Z,14.20
2022-07-30T03:28:04.110Z,14.20
2022-07-30T03:30:34.677Z,14.10
2022-07-30T03:33:06.407Z,14.00
2022-07-30T03:35:35.132Z,13.90
2022-07-30T03:38:04.526Z,13.80
2022-07-30T03:40:33.380Z,13.80
2022-07-30T03:43:01.341Z,13.90
2022-07-30T03:45:29.778Z,14.00
2022-07-30T03:48:09.512Z,14.00
2022-07-30T03:50:42.016Z,14.10
2022-07-30T03:53:11.691Z,14.10
2022-07-30T03:55:59.798Z,14.10
2022-07-30T03:58:46.326Z,14.10
2022-07-30T04:01:14.028Z,14.00
2022-07-30T04:03:42.934Z,13.90
2022-07-30T04:06:10.822Z,13.90
2022-07-30T04:08:38.630Z,13.90
2022-07-30T04:11:06.379Z,13.90
2022-07-30T04:13:46.173Z,13.90
2022-07-30T04:16:39.387Z,13.90
2022-07-30T04:19:12.235Z,13.90
2022-07-30T04:21:42.064Z,14.00
2022-07-30T04:24:12.147Z,14.00
2022-07-30T04:26:40.186Z,14.00
2022-07-30T04:29:16.658Z,14.00
2022-07-30T04:31:47.293Z,14.00
2022-07-30T04:34:35.589Z,14.00
2022-07-30T04:37:06.569Z,14.00
2022-07-30T04:39:34.345Z,13.90
2022-07-30T04:42:01.992Z,13.80
2022-07-30T04:44:39.018Z,13.80
2022-07-30T04:47:24.875Z,13.80
2022-07-30T04:50:16.809Z,13.80
2022-07-30T04:52:47.598Z,13.70
2022-07-30T04:55:23.073Z,13.70
2022-07-30T04:57:52.645Z,13.60
2022-07-30T05:00:20.988Z,13.60
2022-07-30T05:02:50.789Z,13.70
2022-07-30T05:05:20.103Z,13.70
2022-07-30T05:07:48.833Z,13.80
2022-07-30T05:10:18.355Z,13.90
2022-07-30T05:12:46.269Z,14.00
2022-07-30T05:15:16.441Z,14.10
2022-07-30T05:17:45.245Z,14.10
2022-07-30T05:20:14.344Z,14.10
2022-07-30T05:23:01.842Z,14.10
2022-07-30T05:25:29.777Z,14.20
2022-07-30T05:28:07.861Z,14.30
2022-07-30T05:30:38.073Z,14.30
2022-07-30T05:33:15.552Z,14.40
2022-07-30T05:35:44.453Z,14.50
2022-07-30T05:38:12.343Z,14.60
2022-07-30T05:40:53.570Z,14.60
2022-07-30T05:43:39.777Z,14.60
2022-07-30T05:46:07.642Z,14.60
2022-07-30T05:48:36.720Z,14.70
2022-07-30T05:51:05.382Z,14.90
2022-07-30T05:53:33.089Z,14.90
2022-07-30T05:56:28.376Z,15.00
2022-07-30T05:59:08.617Z,15.10
2022-07-30T06:01:59.105Z,15.20
2022-07-30T06:04:35.628Z,15.20
2022-07-30T06:07:05.840Z,15.30
2022-07-30T06:09:36.954Z,15.40
2022-07-30T06:12:06.562Z,15.40
2022-07-30T06:14:34.298Z,15.50
2022-07-30T06:17:02.952Z,15.60
2022-07-30T06:19:47.710Z,15.70
2022-07-30T06:22:15.601Z,15.80
2022-07-30T06:24:48.085Z,15.90
2022-07-30T06:27:22.247Z,15.90
2022-07-30T06:29:49.904Z,16.00
2022-07-30T06:32:19.191Z,16.10
2022-07-30T06:34:46.946Z,16.20
2022-07-30T06:37:14.582Z,16.30
2022-07-30T06:39:57.557Z,16.40
2022-07-30T06:42:26.399Z,16.50
2022-07-30T06:45:12.898Z,16.70
2022-07-30T06:48:00.088Z,16.80
2022-07-30T06:50:31.630Z,17.00
2022-07-30T06:53:01.561Z,17.20
2022-07-30T06:55:44.432Z,17.40
2022-07-30T06:58:12.031Z,17.60
2022-07-30T07:00:59.342Z,17.70
2022-07-30T07:03:39.853Z,17.80
2022-07-30T07:06:09.267Z,18.00
2022-07-30T07:08:38.454Z,18.10
2022-07-30T07:11:07.937Z,18.30
2022-07-30T07:13:45.241Z,18.40
2022-07-30T07:16:21.886Z,18.50
2022-07-30T07:18:52.422Z,18.50
2022-07-30T07:21:20.897Z,18.50
2022-07-30T07:23:48.835Z,18.60
2022-07-30T07:26:48.909Z,18.70
2022-07-30T07:29:17.057Z,19.00
2022-07-30T07:32:06.273Z,19.10
2022-07-30T07:34:34.067Z,19.30
2022-07-30T07:37:02.493Z,19.50
2022-07-30T07:39:30.610Z,19.50
2022-07-30T07:41:58.268Z,19.60
2022-07-30T07:44:28.442Z,19.60
2022-07-30T07:46:56.267Z,19.60
2022-07-30T07:49:27.948Z,19.70
2022-07-30T07:51:55.762Z,19.80
2022-07-30T07:54:24.171Z,19.80
2022-07-30T07:56:57.243Z,19.80
2022-07-30T07:59:40.334Z,19.80
2022-07-30T08:02:15.220Z,19.90
2022-07-30T08:05:08.574Z,19.90
2022-07-30T08:08:02.617Z,20.00
2022-07-30T08:10:53.042Z,20.00
2022-07-30T08:13:48.551Z,20.30
2022-07-30T08:16:29.276Z,20.60
2022-07-30T08:19:23.089Z,20.90
2022-07-30T08:22:12.188Z,21.10
2022-07-30T08:24:41.078Z,21.20
2022-07-30T08:27:09.193Z,21.30
2022-07-30T08:29:37.412Z,21.30
2022-07-30T08:32:06.483Z,21.30
2022-07-30T08:34:37.281Z,21.50
2022-07-30T08:37:06.183Z,21.60
2022-07-30T08:39:34.575Z,21.70
2022-07-30T08:42:05.054Z,21.70
2022-07-30T08:44:34.201Z,21.70
2022-07-30T08:47:07.904Z,21.80
2022-07-30T08:50:05.468Z,21.90
2022-07-30T08:52:37.786Z,21.90
2022-07-30T08:55:08.045Z,21.90
2022-07-30T08:57:37.271Z,21.90
2022-07-30T09:00:07.697Z,22.00
2022-07-30T09:02:35.447Z,22.00
2022-07-30T09:05:06.239Z,22.10
2022-07-30T09:07:35.397Z,22.10
2022-07-30T09:10:07.524Z,22.10
2022-07-30T09:12:38.752Z,22.10
2022-07-30T09:15:16.511Z,22.20
2022-07-30T09:18:03.086Z,22.30
2022-07-30T09:20:36.375Z,22.30
2022-07-30T09:23:08.102Z,22.30
2022-07-30T09:25:54.362Z,22.30
2022-07-30T09:28:40.789Z,22.20
2022-07-30T09:34:35.923Z,22.10
2022-07-30T09:37:19.250Z,22.10
2022-07-30T09:39:58.816Z,22.20
2022-07-30T09:42:45.992Z,22.20
2022-07-30T09:45:16.087Z,22.20
2022-07-30T09:47:49.382Z,22.20
2022-07-30T09:50:29.952Z,22.30
2022-07-30T09:53:09.845Z,22.40
2022-07-30T09:55:42.566Z,22.40
2022-07-30T09:58:19.983Z,22.40
2022-07-30T10:01:00.007Z,22.40
2022-07-30T10:03:48.943Z,22.30
2022-07-30T10:06:37.887Z,22.40
2022-07-30T10:09:37.141Z,22.70
2022-07-30T10:12:11.026Z,22.90
2022-07-30T10:14:46.507Z,23.20
2022-07-30T10:17:17.549Z,23.40
2022-07-30T10:20:09.176Z,23.50
2022-07-30T10:23:07.639Z,23.70
2022-07-30T10:25:49.247Z,23.90
2022-07-30T10:28:43.518Z,24.10
2022-07-30T10:31:47.978Z,24.30
2022-07-30T10:33:59.816Z,24.40
2022-07-30T10:36:28.627Z,24.40
2022-07-30T10:38:56.977Z,24.30
2022-07-30T10:42:06.176Z,24.30
2022-07-30T10:45:17.309Z,24.50
2022-07-30T10:47:49.303Z,24.70
2022-07-30T10:50:26.914Z,24.70
2022-07-30T10:53:03.744Z,24.90
2022-07-30T10:55:38.514Z,25.10
2022-07-30T10:58:15.557Z,25.30
2022-07-30T11:03:16.161Z,25.60
2022-07-30T11:05:47.136Z,25.80
2022-07-30T11:08:42.803Z,25.80
2022-07-30T11:11:59.098Z,25.80
2022-07-30T11:14:10.593Z,25.80
2022-07-30T11:16:42.350Z,25.70
2022-07-30T11:19:56.988Z,25.60
2022-07-30T11:22:33.042Z,25.50
2022-07-30T11:25:02.793Z,25.40
2022-07-30T11:27:48.883Z,25.30
2022-07-30T11:30:17.362Z,25.20
2022-07-30T11:32:57.520Z,25.10
2022-07-30T11:35:34.688Z,25.00
2022-07-30T11:38:08.852Z,24.90
2022-07-30T11:40:56.662Z,24.80
2022-07-30T11:43:36.942Z,24.70
2022-07-30T11:46:15.730Z,24.70
2022-07-30T11:49:08.380Z,24.70
2022-07-30T11:51:47.620Z,24.60
2022-07-30T11:54:15.923Z,24.70
2022-07-30T11:57:02.091Z,24.70
2022-07-30T11:59:31.895Z,24.60
2022-07-30T12:02:01.840Z,24.70
2022-07-30T12:04:30.204Z,24.80
2022-07-30T12:06:57.838Z,24.90
2022-07-30T12:09:30.145Z,25.00
2022-07-30T12:11:57.905Z,25.20
2022-07-30T12:14:25.668Z,25.40
2022-07-30T12:16:54.722Z,25.50
2022-07-30T12:19:22.357Z,25.60
2022-07-30T12:21:53.393Z,25.70
2022-07-30T12:24:26.692Z,25.80
2022-07-30T12:27:06.234Z,26.00
2022-07-30T12:29:37.452Z,26.10
2022-07-30T12:32:05.544Z,26.20
2022-07-30T12:34:33.785Z,26.30
2022-07-30T12:37:10.536Z,26.30
2022-07-30T12:39:38.413Z,26.30
2022-07-30T12:42:20.920Z,26.20
2022-07-30T12:44:51.534Z,26.10
2022-07-30T12:47:30.241Z,26.10
2022-07-30T12:50:02.462Z,26.00
2022-07-30T12:52:33.736Z,26.00
2022-07-30T12:55:12.571Z,26.00
2022-07-30T12:58:08.360Z,26.00
2022-07-30T13:00:52.223Z,26.20
2022-07-30T13:03:22.470Z,26.30
2022-07-30T13:05:56.240Z,26.40
2022-07-30T13:08:55.567Z,26.60
2022-07-30T13:11:28.113Z,26.70
2022-07-30T13:13:55.764Z,26.80
2022-07-30T13:16:23.675Z,26.80
2022-07-30T13:18:51.309Z,26.90
2022-07-30T13:21:18.932Z,26.70
2022-07-30T13:23:46.788Z,26.60
2022-07-30T13:26:14.429Z,26.50
2022-07-30T13:28:42.178Z,26.50
2022-07-30T13:31:10.007Z,26.50
2022-07-30T13:33:38.881Z,26.50
2022-07-30T13:36:07.839Z,26.40
2022-07-30T13:38:35.723Z,26.30
2022-07-30T13:41:05.221Z,26.30
2022-07-30T13:43:33.979Z,26.20
2022-07-30T13:46:03.262Z,26.10
2022-07-30T13:48:32.685Z,26.00
2022-07-30T13:51:02.013Z,25.90
2022-07-30T13:53:29.990Z,25.90
2022-07-30T13:55:59.596Z,25.90
2022-07-30T13:58:27.823Z,25.80
2022-07-30T14:00:55.560Z,25.80
2022-07-30T14:03:23.181Z,25.80
2022-07-30T14:05:51.456Z,25.80
2022-07-30T14:08:19.243Z,25.70
2022-07-30T14:10:46.879Z,25.70
2022-07-30T14:13:21.134Z,25.60
2022-07-30T14:15:49.207Z,25.70
2022-07-30T14:18:17.068Z,25.60
2022-07-30T14:20:48.519Z,25.70
2022-07-30T14:23:17.280Z,25.80
2022-07-30T14:25:45.124Z,25.80
2022-07-30T14:28:13.412Z,25.80
2022-07-30T14:30:42.026Z,25.80
2022-07-30T14:33:10.183Z,25.90
2022-07-30T14:35:37.905Z,25.90
2022-07-30T14:38:05.918Z,25.90
2022-07-30T14:40:33.602Z,25.90
2022-07-30T14:43:01.386Z,25.90
2022-07-30T14:45:29.127Z,25.90
2022-07-30T14:47:57.102Z,25.90
2022-07-30T14:50:24.806Z,25.90
2022-07-30T14:52:52.499Z,26.00
2022-07-30T14:55:20.162Z,26.00
2022-07-30T14:57:47.836Z,26.20
2022-07-30T15:00:15.996Z,26.10
2022-07-30T15:02:43.718Z,26.00
2022-07-30T15:05:11.379Z,25.90
2022-07-30T15:07:40.753Z,25.90
2022-07-30T15:10:09.017Z,25.80
2022-07-30T15:12:36.676Z,25.80
2022-07-30T15:15:07.699Z,25.80
2022-07-30T15:17:38.767Z,25.80
2022-07-30T15:20:09.118Z,25.80
2022-07-30T15:22:36.933Z,25.90
2022-07-30T15:25:06.013Z,25.80
2022-07-30T15:27:34.540Z,25.80
2022-07-30T15:30:03.755Z,25.80
2022-07-30T15:32:31.760Z,25.70
2022-07-30T15:34:59.406Z,25.60
2022-07-30T15:37:27.115Z,25.40
2022-07-30T15:39:54.712Z,25.30
2022-07-30T15:42:22.615Z,25.20
2022-07-30T15:45:14.274Z,25.30
2022-07-30T15:47:41.543Z,25.20
2022-07-30T15:50:09.935Z,25.20
2022-07-30T15:52:37.755Z,25.10
2022-07-30T15:55:06.818Z,25.00
2022-07-30T15:57:34.645Z,25.00
2022-07-30T16:00:04.209Z,24.90
2022-07-30T16:02:41.242Z,24.80
2022-07-30T16:05:14.006Z,24.80
2022-07-30T16:07:42.906Z,24.80
2022-07-30T16:10:11.111Z,24.80
2022-07-30T16:12:39.619Z,24.90
2022-07-30T16:15:09.037Z,25.00
2022-07-30T16:17:37.100Z,24.90
2022-07-30T16:20:09.770Z,24.90
2022-07-30T16:22:37.445Z,25.00
2022-07-30T16:25:05.640Z,24.80
2022-07-30T16:27:33.344Z,24.70
2022-07-30T16:30:01.006Z,24.80
2022-07-30T16:32:28.699Z,24.80
2022-07-30T16:34:56.323Z,24.90
2022-07-30T16:37:24.289Z,24.90
2022-07-30T16:39:52.019Z,25.00
2022-07-30T16:42:19.669Z,25.10
2022-07-30T16:44:47.358Z,25.10
2022-07-30T16:47:19.086Z,25.00
2022-07-30T16:49:47.049Z,24.80
2022-07-30T16:52:15.975Z,24.90
2022-07-30T16:54:46.286Z,24.80
2022-07-30T16:57:14.543Z,24.80
2022-07-30T16:59:43.757Z,24.80
2022-07-30T17:02:12.000Z,24.80
2022-07-30T17:04:40.000Z,24.70
2022-07-30T17:07:07.667Z,24.70
2022-07-30T17:09:36.781Z,24.70
2022-07-30T17:12:12.256Z,24.80
2022-07-30T17:14:43.843Z,24.60
2022-07-30T17:17:14.444Z,24.60
2022-07-30T17:19:43.291Z,24.50
2022-07-30T17:22:11.219Z,24.40
2022-07-30T17:24:39.041Z,24.20
2022-07-30T17:30:04.729Z,23.90
2022-07-30T17:32:32.939Z,23.90
2022-07-30T17:35:01.713Z,23.80
2022-07-30T17:37:30.486Z,23.80
2022-07-30T17:40:29.819Z,23.70
2022-07-30T17:42:46.501Z,23.60
2022-07-30T17:45:14.405Z,23.50
2022-07-30T17:47:42.118Z,23.50
2022-07-30T17:50:10.767Z,23.50
2022-07-30T17:52:39.841Z,23.50
2022-07-30T17:55:11.213Z,23.40
2022-07-30T17:57:39.454Z,23.40
2022-07-30T18:00:09.506Z,23.40
2022-07-30T18:02:37.235Z,23.30
2022-07-30T18:05:05.513Z,23.30
2022-07-30T18:07:33.165Z,23.30
2022-07-30T18:10:00.822Z,23.40
2022-07-30T18:12:28.406Z,23.40
2022-07-30T18:14:56.000Z,23.30
2022-07-30T18:17:23.710Z,23.30
2022-07-30T18:19:51.411Z,23.20
2022-07-30T18:22:22.198Z,23.20
2022-07-30T18:25:00.164Z,23.20
2022-07-30T18:27:28.058Z,23.10
2022-07-30T18:29:55.844Z,23.10
2022-07-30T18:32:25.019Z,23.10
2022-07-30T18:34:52.776Z,23.10
2022-07-30T18:37:20.391Z,23.00
2022-07-30T18:39:48.208Z,23.10
2022-07-30T18:42:15.770Z,23.00
2022-07-30T18:44:43.379Z,23.00
2022-07-30T18:47:11.000Z,22.90
2022-07-30T18:49:38.648Z,22.90
2022-07-30T18:52:07.576Z,22.90
2022-07-30T18:54:37.228Z,22.80
2022-07-30T18:57:05.551Z,22.80
2022-07-30T18:59:33.459Z,22.80
2022-07-30T19:02:02.074Z,22.80
2022-07-30T19:04:31.410Z,22.80
2022-07-30T19:06:59.346Z,22.80
2022-07-30T19:09:27.283Z,22.80
2022-07-30T19:11:54.906Z,22.80
2022-07-30T19:14:22.762Z,22.70
2022-07-30T19:16:50.478Z,22.70
2022-07-30T19:19:19.886Z,22.70
2022-07-30T19:21:47.794Z,22.60
2022-07-30T19:24:15.657Z,22.50
2022-07-30T19:26:44.079Z,22.50
2022-07-30T19:29:12.283Z,22.40
2022-07-30T19:31:41.636Z,22.30
2022-07-30T19:34:11.150Z,22.20
2022-07-30T19:36:39.775Z,22.20
2022-07-30T19:39:09.398Z,22.10
2022-07-30T19:41:41.901Z,22.10
2022-07-30T19:44:11.285Z,22.00
2022-07-30T19:49:29.441Z,22.00
2022-07-30T19:52:10.071Z,21.90
2022-07-30T19:54:46.050Z,22.00
2022-07-30T19:57:13.732Z,22.00
2022-07-30T19:59:46.513Z,21.90
2022-07-30T20:02:27.671Z,21.90
2022-07-30T20:04:55.493Z,21.90
2022-07-30T20:07:23.462Z,21.80
2022-07-30T20:09:56.347Z,21.80
2022-07-30T20:12:24.836Z,21.70
2022-07-30T20:14:54.325Z,21.60
2022-07-30T20:17:23.919Z,21.50
2022-07-30T20:19:59.410Z,21.50
2022-07-30T20:22:29.026Z,21.50
2022-07-30T20:24:56.957Z,21.40
2022-07-30T20:27:36.072Z,21.40
2022-07-30T20:30:09.303Z,21.40
2022-07-30T20:32:40.641Z,21.50
2022-07-30T20:35:14.157Z,21.50
2022-07-30T20:37:55.380Z,21.50
2022-07-30T20:40:26.598Z,21.50
2022-07-30T20:42:55.248Z,21.50
2022-07-30T20:45:24.753Z,21.60
2022-07-30T20:47:56.752Z,21.50
2022-07-30T20:50:30.092Z,21.60
2022-07-30T20:52:59.543Z,21.50
2022-07-30T20:55:28.151Z,21.50
2022-07-30T20:58:09.983Z,21.50
2022-07-30T21:00:49.384Z,21.50
2022-07-30T21:03:21.936Z,21.50
2022-07-30T21:05:52.592Z,21.50
2022-07-30T21:08:25.087Z,21.50
2022-07-30T21:10:53.606Z,21.50
2022-07-30T21:13:24.932Z,21.50
2022-07-30T21:16:02.613Z,21.40
2022-07-30T21:18:32.749Z,21.50
2022-07-30T21:21:05.423Z,21.40
2022-07-30T21:23:33.906Z,21.40
2022-07-30T21:26:04.945Z,21.30
2022-07-30T21:28:36.108Z,21.40
2022-07-30T21:31:07.108Z,21.30
2022-07-30T21:33:38.482Z,21.30
2022-07-30T21:36:10.485Z,21.30
2022-07-30T21:38:42.649Z,21.20
2022-07-30T21:41:15.310Z,21.20
2022-07-30T21:43:46.550Z,21.10
2022-07-30T21:46:24.836Z,21.10
2022-07-30T21:49:07.179Z,21.00
2022-07-30T21:51:35.512Z,20.90
2022-07-30T21:54:07.074Z,21.00
2022-07-30T21:56:35.141Z,20.90
2022-07-30T21:59:09.477Z,20.90
2022-07-30T22:01:37.950Z,20.80
2022-07-30T22:04:08.065Z,20.80
2022-07-30T22:06:40.106Z,20.80
2022-07-30T22:09:18.615Z,20.70
2022-07-30T22:11:54.963Z,20.70
2022-07-30T22:14:25.531Z,20.70
2022-07-30T22:16:53.564Z,20.60
2022-07-30T22:19:22.372Z,20.60
2022-07-30T22:21:51.198Z,20.60
2022-07-30T22:24:29.472Z,20.50
2022-07-30T22:27:01.532Z,20.40
2022-07-30T22:29:33.924Z,20.30
2022-07-30T22:32:04.575Z,20.20
2022-07-30T22:34:32.819Z,20.10
2022-07-30T22:37:01.039Z,20.20
2022-07-30T22:39:31.591Z,20.20
2022-07-30T22:42:16.697Z,20.30
2022-07-30T22:44:45.920Z,20.30
2022-07-30T22:47:18.715Z,20.40
2022-07-30T22:49:53.339Z,20.40
2022-07-30T22:52:26.988Z,20.40
2022-07-30T22:55:08.808Z,20.40
2022-07-30T22:57:38.346Z,20.40
2022-07-30T23:00:12.282Z,20.40
2022-07-30T23:02:42.944Z,20.40
2022-07-30T23:05:11.803Z,20.40
2022-07-30T23:07:40.599Z,20.40
2022-07-30T23:10:12.290Z,20.40
2022-07-30T23:12:15.037Z,22.00
2022-07-30T23:12:53.890Z,20.40
2022-07-30T23:15:22.041Z,20.40
2022-07-30T23:17:50.159Z,20.30
2022-07-30T23:20:23.201Z,20.30
2022-07-30T23:22:51.262Z,20.30
2022-07-30T23:25:19.042Z,20.30
2022-07-30T23:27:46.831Z,20.30
2022-07-30T23:30:17.281Z,20.20
2022-07-30T23:32:45.143Z,20.20
2022-07-30T23:35:12.955Z,20.20
2022-07-30T23:37:48.933Z,20.10
2022-07-30T23:40:19.949Z,20.10
2022-07-30T23:42:51.158Z,20.10
2022-07-30T23:45:19.244Z,20.10
2022-07-30T23:47:54.609Z,20.00
2022-07-30T23:50:32.832Z,20.00
2022-07-30T23:53:02.161Z,19.90
2022-07-30T23:55:31.661Z,20.00
2022-07-30T23:58:00.286Z,19.90
